Time;durP1;ratioP1;P1;durP2;ratioP2;P2;SDS_P1;SDS_P2;PMS_P1;PMS_P2;Temp;Humidity;BMP_temperature;BMP_pressure;BME280_temperature;BME280_humidity;BME280_pressure;Samples;Min_cycle;Max_cycle;Signal;HPM_P1;HPM_P2
2022/07/10 00:00:32;;;;;;;2.22;1.10;;;;;;;19.96;48.76;100357.13;5050671;28;20029;-70
2022/07/10 00:02:58;;;;;;;0.95;0.95;;;;;;;19.99;48.93;100345.84;5050798;28;20041;-70
2022/07/10 00:05:24;;;;;;;2.15;1.20;;;;;;;19.99;49.03;100343.13;5050572;28;20028;-70
2022/07/10 00:07:50;;;;;;;2.10;1.15;;;;;;;19.87;49.12;100322.06;5050451;28;20039;-69
2022/07/10 00:10:18;;;;;;;2.72;1.02;;;;;;;20.03;48.92;100327.25;5050745;28;20379;-70
2022/07/10 00:12:45;;;;;;;3.10;1.10;;;;;;;19.96;49.26;100320.91;5050416;28;20044;-70
2022/07/10 00:15:11;;;;;;;1.98;1.25;;;;;;;20.07;49.41;100326.69;5050641;28;20033;-70
2022/07/10 00:17:39;;;;;;;3.00;1.25;;;;;;;20.02;49.53;100320.97;5050651;28;20467;-70
2022/07/10 00:20:06;;;;;;;4.07;1.20;;;;;;;19.97;49.38;100314.41;5050783;28;20083;-70
2022/07/10 00:22:34;;;;;;;2.55;1.13;;;;;;;20.02;49.58;100326.41;5049219;28;20381;-71
2022/07/10 00:25:03;;;;;;;2.45;1.33;;;;;;;19.97;49.75;100318.00;5050403;28;20376;-69
2022/07/10 00:27:29;;;;;;;4.28;1.20;;;;;;;19.93;49.88;100310.41;5042587;28;20029;-71
2022/07/10 00:29:54;;;;;;;1.27;1.17;;;;;;;19.92;50.30;100320.44;5036073;28;20024;-70
2022/07/10 00:32:20;;;;;;;1.98;0.95;;;;;;;19.82;50.89;100290.00;5049942;28;20025;-71
2022/07/10 00:34:45;;;;;;;1.42;0.77;;;;;;;19.91;50.72;100307.03;5050095;28;21740;-71
2022/07/10 00:37:10;;;;;;;3.15;0.90;;;;;;;19.91;51.00;100305.16;5050168;28;20041;-70
2022/07/10 00:39:36;;;;;;;1.85;0.80;;;;;;;19.86;50.84;100301.31;5049987;28;20024;-70
2022/07/10 00:42:07;;;;;;;0.95;0.85;;;;;;;19.87;51.19;100306.56;5049898;28;20042;-70
2022/07/10 00:44:33;;;;;;;2.15;0.90;;;;;;;19.80;51.54;100297.50;5049848;28;20033;-70
2022/07/10 00:46:59;;;;;;;1.85;1.00;;;;;;;19.82;51.79;100300.03;5050040;28;20550;-70
2022/07/10 00:49:24;;;;;;;2.35;1.30;;;;;;;19.78;51.74;100291.41;5049946;28;20116;-70
2022/07/10 00:51:50;;;;;;;2.53;1.15;;;;;;;19.69;52.21;100275.41;5050102;28;20055;-68
2022/07/10 00:54:16;;;;;;;1.10;1.00;;;;;;;19.77;52.51;100287.00;5049769;28;20128;-70
2022/07/10 00:56:42;;;;;;;2.17;1.10;;;;;;;19.74;52.52;100287.38;5048194;28;20032;-70
2022/07/10 00:59:09;;;;;;;2.90;1.10;;;;;;;19.77;52.64;100295.16;5048446;28;20492;-70
2022/07/10 01:01:36;;;;;;;3.33;1.05;;;;;;;19.77;52.88;100302.50;5049571;28;20021;-70
2022/07/10 01:04:01;;;;;;;1.83;0.80;;;;;;;19.71;53.31;100278.78;5049776;28;20031;-69
2022/07/10 01:06:27;;;;;;;4.80;0.93;;;;;;;19.77;53.02;100299.78;5040267;28;20045;-70
2022/07/10 01:08:53;;;;;;;4.35;0.90;;;;;;;19.73;53.42;100293.00;5029800;28;20063;-70
2022/07/10 01:11:19;;;;;;;1.13;0.68;;;;;;;19.70;53.68;100288.81;5042917;28;20033;-69
2022/07/10 01:13:44;;;;;;;1.98;0.90;;;;;;;19.79;53.86;100301.25;5049599;28;20372;-70
2022/07/10 01:16:11;;;;;;;10.38;1.60;;;;;;;19.73;54.08;100287.56;5049696;28;20107;-71
2022/07/10 01:18:37;;;;;;;3.13;1.00;;;;;;;19.80;54.13;100278.44;5036407;28;20036;-70
2022/07/10 01:21:03;;;;;;;1.80;1.10;;;;;;;19.77;54.26;100278.81;5029765;28;20368;-71
2022/07/10 01:23:28;;;;;;;3.40;1.00;;;;;;;19.74;54.56;100264.78;5029445;28;20041;-70
2022/07/10 01:25:54;;;;;;;0.90;0.90;;;;;;;19.81;54.38;100274.69;5029665;28;20021;-68
2022/07/10 01:28:21;;;;;;;2.55;0.80;;;;;;;19.82;54.79;100275.53;5044785;28;20032;-71
2022/07/10 01:30:47;;;;;;;1.42;0.90;;;;;;;19.90;54.81;100273.50;5047948;28;20032;-70
2022/07/10 01:33:13;;;;;;;2.15;0.88;;;;;;;19.89;54.82;100265.53;5049393;28;20090;-70
2022/07/10 01:35:38;;;;;;;1.60;0.95;;;;;;;19.85;54.90;100262.38;5049505;28;20114;-70
2022/07/10 01:38:04;;;;;;;1.35;0.88;;;;;;;19.96;55.08;100271.91;5049337;28;20033;-70
2022/07/10 01:40:30;;;;;;;1.33;0.77;;;;;;;19.88;55.01;100261.13;5049241;28;20043;-72
2022/07/10 01:42:55;;;;;;;2.00;1.00;;;;;;;19.96;55.17;100261.84;5051508;28;20036;-70
2022/07/10 01:45:20;;;;;;;1.73;0.93;;;;;;;19.97;55.11;100259.97;5053802;28;20478;-70
2022/07/10 01:47:46;;;;;;;2.15;1.30;;;;;;;19.78;55.36;100226.09;5053415;28;20021;-71
2022/07/10 01:50:11;;;;;;;1.30;0.80;;;;;;;19.76;55.37;100228.16;5051963;28;20202;-70
2022/07/10 01:52:37;;;;;;;2.85;0.80;;;;;;;20.04;55.32;100259.00;5051682;28;20086;-71
2022/07/10 01:55:04;;;;;;;4.15;0.90;;;;;;;20.06;55.32;100240.56;5051299;28;20641;-70
2022/07/10 01:57:30;;;;;;;1.05;0.80;;;;;;;20.01;55.47;100253.09;5033043;28;20041;-70
2022/07/10 01:59:55;;;;;;;2.90;1.10;;;;;;;20.10;55.51;100257.34;5033079;28;20029;-72
2022/07/10 02:02:21;;;;;;;1.70;0.90;;;;;;;19.97;55.60;100244.50;5033275;28;20026;-70
2022/07/10 02:04:47;;;;;;;1.40;0.90;;;;;;;19.99;55.85;100250.56;5033000;28;20036;-70
2022/07/10 02:07:18;;;;;;;1.80;0.70;;;;;;;19.97;56.07;100247.22;5036451;28;20045;-70
2022/07/10 02:09:44;;;;;;;3.05;0.80;;;;;;;19.94;56.13;100246.75;5052961;28;20021;-70
2022/07/10 02:12:13;;;;;;;1.30;0.90;;;;;;;19.99;56.51;100255.16;5052933;28;20033;-70
2022/07/10 02:14:39;;;;;;;2.55;1.10;;;;;;;19.93;56.44;100250.53;5051534;28;20040;-70
2022/07/10 02:17:05;;;;;;;2.38;0.85;;;;;;;20.01;56.65;100251.22;5052703;28;20039;-70
2022/07/10 02:19:31;;;;;;;0.82;0.70;;;;;;;20.00;56.78;100249.50;5051186;28;20023;-70
2022/07/10 02:21:56;;;;;;;4.53;1.15;;;;;;;19.87;56.85;100235.78;5052606;28;20020;-70
2022/07/10 02:24:22;;;;;;;1.58;0.82;;;;;;;19.94;57.08;100242.16;5045595;28;20144;-70
2022/07/10 02:26:48;;;;;;;0.82;0.70;;;;;;;19.97;57.07;100247.22;5032873;28;20036;-70
2022/07/10 02:29:14;;;;;;;1.17;1.00;;;;;;;19.98;57.20;100246.16;5032804;28;20038;-70
2022/07/10 02:31:42;;;;;;;0.85;0.77;;;;;;;19.96;57.17;100245.50;5032718;28;20041;-70
2022/07/10 02:34:09;;;;;;;2.63;0.80;;;;;;;19.92;57.21;100224.31;5032750;28;20511;-70
2022/07/10 02:36:35;;;;;;;3.22;0.88;;;;;;;19.84;57.43;100217.16;5032711;28;20135;-70
2022/07/10 02:39:00;;;;;;;1.25;0.82;;;;;;;19.95;57.68;100243.81;5032810;28;20488;-70
2022/07/10 02:41:26;;;;;;;0.60;0.60;;;;;;;20.00;57.74;100244.06;5032683;28;20116;-70
2022/07/10 02:43:52;;;;;;;2.00;0.85;;;;;;;19.98;57.67;100235.28;5032382;28;20084;-70
2022/07/10 02:46:17;;;;;;;1.85;0.70;;;;;;;20.04;57.60;100230.91;5031074;28;20053;-71
2022/07/10 02:48:43;;;;;;;1.10;0.80;;;;;;;20.03;57.85;100238.22;5050599;28;20062;-70
2022/07/10 02:51:08;;;;;;;2.40;1.00;;;;;;;19.99;58.31;100226.06;5052111;28;20024;-70
2022/07/10 02:53:34;;;;;;;1.98;0.80;;;;;;;20.02;58.28;100236.56;5050797;28;20126;-71
2022/07/10 02:55:59;;;;;;;3.90;1.00;;;;;;;20.04;58.34;100239.94;5051636;28;20040;-70
2022/07/10 02:58:25;;;;;;;2.58;0.80;;;;;;;20.00;58.33;100225.00;5052061;28;20407;-70
2022/07/10 03:00:51;;;;;;;1.10;0.77;;;;;;;20.03;58.52;100235.50;5035318;28;20116;-70
2022/07/10 03:03:17;;;;;;;4.43;1.00;;;;;;;19.91;58.60;100223.50;5032184;28;20030;-70
2022/07/10 03:05:46;;;;;;;2.75;0.80;;;;;;;19.95;58.87;100223.91;5032142;28;20112;-70
2022/07/10 03:08:12;;;;;;;1.63;1.10;;;;;;;20.00;58.53;100238.63;5031824;28;20037;-70
2022/07/10 03:10:38;;;;;;;3.50;0.93;;;;;;;20.04;58.50;100234.50;5031883;28;20381;-70
2022/07/10 03:13:04;;;;;;;2.05;0.85;;;;;;;20.01;58.36;100225.84;5031865;28;20033;-70
2022/07/10 03:15:30;;;;;;;2.53;1.17;;;;;;;20.06;58.79;100246.00;5046872;28;20037;-70
2022/07/10 03:17:55;;;;;;;3.50;1.00;;;;;;;20.06;58.93;100250.63;5045467;28;20512;-70
2022/07/10 03:20:21;;;;;;;5.25;0.90;;;;;;;20.03;58.78;100246.41;5031604;28;20040;-70
2022/07/10 03:22:47;;;;;;;1.23;0.80;;;;;;;20.02;58.92;100243.88;5031768;28;20026;-71
2022/07/10 03:25:13;;;;;;;2.40;0.93;;;;;;;20.10;59.10;100260.94;5030637;28;20561;-71
2022/07/10 03:27:39;;;;;;;1.27;0.90;;;;;;;19.94;59.44;100239.44;5031556;28;20032;-71
2022/07/10 03:30:05;;;;;;;2.15;0.77;;;;;;;19.97;59.14;100233.59;5031676;28;20033;-70
2022/07/10 03:32:31;;;;;;;2.08;0.90;;;;;;;19.91;59.47;100233.53;5051186;28;20094;-71
2022/07/10 03:34:56;;;;;;;1.63;1.20;;;;;;;20.02;59.53;100255.63;5051794;28;20025;-69
2022/07/10 03:37:22;;;;;;;0.80;0.80;;;;;;;19.99;59.91;100247.84;5051606;28;20049;-70
2022/07/10 03:39:47;;;;;;;3.22;1.10;;;;;;;20.01;59.77;100256.66;5030864;28;20041;-70
2022/07/10 03:42:13;;;;;;;1.50;1.00;;;;;;;20.01;60.08;100251.22;5050031;28;20060;-69
2022/07/10 03:44:38;;;;;;;2.17;0.85;;;;;;;19.86;60.25;100225.09;5049459;28;20723;-71
2022/07/10 03:47:04;;;;;;;5.35;1.10;;;;;;;19.96;60.47;100245.50;5034073;28;20030;-70
2022/07/10 03:49:29;;;;;;;1.90;1.08;;;;;;;19.93;60.64;100243.16;5031387;28;20523;-70
2022/07/10 03:51:58;;;;;;;2.00;0.95;;;;;;;19.83;60.81;100237.22;5031297;28;20041;-70
2022/07/10 03:54:24;;;;;;;0.60;0.60;;;;;;;19.81;61.19;100242.03;5031408;28;20128;-71
2022/07/10 03:59:33;;;;;;;1.13;0.90;;;;;;;19.79;62.59;100251.41;5031282;28;20028;-70
2022/07/10 04:01:59;;;;;;;1.48;0.90;;;;;;;19.75;62.59;100245.53;5031308;28;20037;-71
2022/07/10 04:04:24;;;;;;;3.40;0.82;;;;;;;19.66;63.40;100240.41;5045750;28;20047;-70
2022/07/10 04:06:50;;;;;;;1.45;0.60;;;;;;;19.66;63.46;100252.16;5051355;28;20048;-70
2022/07/10 04:09:16;;;;;;;1.08;0.77;;;;;;;19.71;63.47;100252.41;5051495;28;20036;-71
2022/07/10 04:11:43;;;;;;;2.10;0.85;;;;;;;19.63;64.07;100249.81;5051043;28;20052;-70
2022/07/10 04:14:11;;;;;;;0.90;0.80;;;;;;;19.62;64.28;100258.16;5050873;28;20086;-70
2022/07/10 04:16:36;;;;;;;0.80;0.80;;;;;;;19.68;63.93;100252.81;5045836;28;20044;-70
2022/07/10 04:19:02;;;;;;;1.85;0.90;;;;;;;19.68;64.10;100260.97;5050951;28;20059;-71
2022/07/10 04:21:28;;;;;;;0.65;0.65;;;;;;;19.65;64.26;100252.34;5050617;28;20119;-70
2022/07/10 04:23:53;;;;;;;2.65;1.00;;;;;;;19.67;64.44;100248.38;5049182;28;20039;-70
2022/07/10 04:26:18;;;;;;;1.65;1.23;;;;;;;19.70;64.19;100253.44;5043129;28;20025;-70
2022/07/10 04:28:44;;;;;;;0.80;0.80;;;;;;;19.69;64.34;100253.63;5050191;28;20054;-70
2022/07/10 04:31:09;;;;;;;1.85;0.90;;;;;;;19.75;64.25;100253.69;5044293;28;20043;-69
2022/07/10 04:33:35;;;;;;;2.45;0.90;;;;;;;19.73;64.33;100263.94;5030339;28;20036;-71
2022/07/10 04:36:00;;;;;;;1.35;1.10;;;;;;;19.66;64.38;100254.88;5030327;28;20057;-70
2022/07/10 04:38:26;;;;;;;2.08;1.13;;;;;;;19.72;64.49;100269.56;5030792;28;20029;-71
2022/07/10 04:40:51;;;;;;;1.58;0.90;;;;;;;19.59;64.77;100244.94;5050261;28;20079;-70
2022/07/10 04:43:17;;;;;;;1.42;0.98;;;;;;;19.66;64.89;100270.34;5030557;28;20035;-70
2022/07/10 04:45:42;;;;;;;1.15;1.05;;;;;;;19.63;65.03;100260.69;5029983;28;20056;-70
2022/07/10 04:48:08;;;;;;;4.88;1.10;;;;;;;19.68;65.14;100263.69;5028747;28;20029;-71
2022/07/10 04:50:33;;;;;;;2.90;0.90;;;;;;;19.70;65.07;100252.63;5030025;28;20458;-71
2022/07/10 04:52:59;;;;;;;2.65;1.30;;;;;;;19.68;64.97;100241.91;5028628;28;20114;-70
2022/07/10 04:55:24;;;;;;;1.10;1.00;;;;;;;19.75;64.66;100241.97;5030049;28;20045;-70
2022/07/10 04:57:50;;;;;;;3.33;1.05;;;;;;;19.73;65.05;100247.59;5030089;28;20500;-70
2022/07/10 05:00:15;;;;;;;2.83;1.02;;;;;;;19.74;64.92;100238.38;5041229;28;20133;-70
2022/07/10 05:02:41;;;;;;;2.00;1.15;;;;;;;19.85;64.87;100243.31;5048400;28;20033;-71
2022/07/10 05:05:07;;;;;;;1.20;1.00;;;;;;;20.02;64.18;100250.16;5045491;28;20026;-70
2022/07/10 05:07:33;;;;;;;1.33;1.10;;;;;;;20.10;63.55;100241.88;5029726;28;20710;-70
2022/07/10 05:09:58;;;;;;;1.63;0.90;;;;;;;20.27;63.05;100247.03;5029920;28;20103;-69
2022/07/10 05:12:24;;;;;;;1.73;1.10;;;;;;;20.41;62.77;100248.81;5031865;28;20113;-70
2022/07/10 05:14:49;;;;;;;1.50;1.20;;;;;;;20.33;62.10;100219.84;5049525;28;20036;-70
2022/07/10 05:17:14;;;;;;;1.35;1.20;;;;;;;20.44;61.82;100213.00;5047466;28;20043;-70
2022/07/10 05:19:40;;;;;;;1.73;1.20;;;;;;;20.73;61.32;100242.72;5029855;28;20029;-71
2022/07/10 05:22:05;;;;;;;1.48;1.17;;;;;;;20.85;60.30;100228.31;5029862;28;20033;-69
2022/07/10 05:24:31;;;;;;;1.23;1.13;;;;;;;20.97;60.12;100225.88;5029925;28;20068;-70
2022/07/10 05:26:56;;;;;;;1.50;1.00;;;;;;;21.10;59.24;100215.03;5049641;28;20041;-69
2022/07/10 05:29:22;;;;;;;1.35;1.10;;;;;;;21.30;58.40;100216.75;5049469;28;20391;-70
2022/07/10 05:31:47;;;;;;;1.75;1.00;;;;;;;21.51;57.79;100224.78;5049441;28;20539;-70
2022/07/10 05:34:13;;;;;;;3.53;1.00;;;;;;;21.68;57.00;100211.59;5048347;28;20033;-70
2022/07/10 05:36:38;;;;;;;2.13;1.30;;;;;;;21.89;56.06;100222.31;5040467;28;20025;-71
2022/07/10 05:39:04;;;;;;;3.72;1.30;;;;;;;22.00;55.47;100213.53;5029897;28;20028;-70
2022/07/10 05:41:32;;;;;;;1.33;1.20;;;;;;;22.05;54.71;100197.31;5029931;28;20064;-72
2022/07/10 05:43:58;;;;;;;2.90;0.90;;;;;;;22.30;53.56;100209.28;5036381;28;20109;-69
2022/07/10 05:46:23;;;;;;;2.58;1.20;;;;;;;22.47;53.08;100212.41;5049334;28;20032;-70
2022/07/10 05:48:49;;;;;;;3.25;1.10;;;;;;;22.59;52.45;100199.78;5049311;28;20032;-69
2022/07/10 05:51:14;;;;;;;1.58;1.00;;;;;;;22.83;52.17;100218.22;5027193;28;20396;-70
2022/07/10 05:53:40;;;;;;;2.40;1.00;;;;;;;23.05;51.38;100217.69;5029384;28;20458;-70
2022/07/10 05:56:06;;;;;;;1.73;1.00;;;;;;;23.05;51.02;100206.75;5028130;28;20036;-69
2022/07/10 05:58:31;;;;;;;1.45;0.93;;;;;;;23.33;50.30;100220.97;5029077;28;20053;-70
2022/07/10 06:00:57;;;;;;;2.45;0.80;;;;;;;23.46;49.88;100215.41;5029255;28;20025;-70
2022/07/10 06:03:22;;;;;;;1.55;0.90;;;;;;;23.68;49.37;100211.25;5029436;28;20029;-71
2022/07/10 06:05:47;;;;;;;3.50;0.90;;;;;;;23.84;48.17;100215.34;5029334;28;20099;-70
2022/07/10 06:08:13;;;;;;;1.20;0.80;;;;;;;23.93;47.60;100211.28;5030576;28;20044;-71
2022/07/10 06:10:40;;;;;;;2.88;0.80;;;;;;;23.95;47.12;100179.03;5049019;28;20029;-71
2022/07/10 06:13:06;;;;;;;1.30;1.08;;;;;;;24.24;46.96;100203.84;5047799;28;20029;-70
2022/07/10 06:15:31;;;;;;;0.82;0.80;;;;;;;24.29;46.55;100189.47;5049047;28;20033;-71
2022/07/10 06:17:57;;;;;;;0.82;0.82;;;;;;;24.44;46.55;100198.19;5049301;28;20115;-70
2022/07/10 06:20:26;;;;;;;2.30;1.00;;;;;;;24.56;46.20;100190.03;5049331;28;20372;-70
2022/07/10 06:22:52;;;;;;;1.67;0.80;;;;;;;24.63;45.89;100177.09;5046484;28;20053;-71
2022/07/10 06:25:18;;;;;;;8.68;1.55;;;;;;;24.85;45.35;100183.81;5049035;28;20091;-71
2022/07/10 06:27:43;;;;;;;1.92;1.02;;;;;;;24.97;45.20;100199.28;5048475;28;20025;-70
2022/07/10 06:30:09;;;;;;;1.15;1.02;;;;;;;25.06;44.12;100197.91;5052629;28;20055;-71
2022/07/10 06:32:35;;;;;;;1.35;0.90;;;;;;;25.12;44.11;100201.63;5052777;28;20028;-70
2022/07/10 06:35:01;;;;;;;1.08;0.70;;;;;;;25.25;43.69;100194.03;5052867;28;20078;-70
2022/07/10 06:37:27;;;;;;;1.17;0.80;;;;;;;25.40;43.47;100191.72;5052976;28;20028;-71
2022/07/10 06:39:52;;;;;;;1.08;0.73;;;;;;;25.45;42.23;100174.56;5052850;28;20037;-71
2022/07/10 06:42:18;;;;;;;0.98;0.80;;;;;;;25.56;42.55;100184.72;5052425;28;20037;-71
2022/07/10 06:44:44;;;;;;;2.38;0.90;;;;;;;25.53;42.37;100165.97;5052466;28;20028;-70
2022/07/10 06:49:56;;;;;;;1.58;0.80;;;;;;;25.87;41.32;100179.78;5052794;28;20501;-72
2022/07/10 06:52:21;;;;;;;2.08;1.00;;;;;;;25.76;41.56;100166.03;5037911;28;20108;-70
2022/07/10 06:54:47;;;;;;;3.22;0.77;;;;;;;25.85;41.89;100176.44;5034707;28;20108;-71
2022/07/10 06:57:13;;;;;;;1.58;0.90;;;;;;;25.79;41.66;100147.16;5032150;28;20472;-71
2022/07/10 06:59:39;;;;;;;2.63;0.90;;;;;;;26.01;41.26;100167.53;5035374;28;20029;-71
2022/07/10 07:02:05;;;;;;;1.85;0.90;;;;;;;26.14;40.60;100170.03;5052431;28;20025;-71
2022/07/10 07:04:31;;;;;;;1.10;1.00;;;;;;;26.25;40.24;100180.19;5052122;28;20037;-71
2022/07/10 07:06:56;;;;;;;5.63;1.17;;;;;;;26.32;40.48;100158.94;5052286;28;20044;-71
2022/07/10 07:09:22;;;;;;;0.80;0.80;;;;;;;26.40;40.72;100172.28;5050575;28;20795;-71
2022/07/10 07:11:47;;;;;;;1.02;0.93;;;;;;;26.47;40.39;100183.16;5032398;28;20084;-71
2022/07/10 07:14:13;;;;;;;1.30;0.98;;;;;;;26.33;40.31;100168.00;5035654;28;20041;-71
2022/07/10 07:16:41;;;;;;;1.33;1.00;;;;;;;26.45;39.52;100180.69;5051685;28;20037;-71
2022/07/10 07:19:08;;;;;;;1.17;0.90;;;;;;;26.58;39.20;100184.22;5049753;28;20078;-71
2022/07/10 07:24:18;;;;;;;2.63;0.90;;;;;;;26.63;38.80;100184.38;5032080;28;20095;-73
2022/07/10 07:26:47;;;;;;;0.73;0.70;;;;;;;26.54;39.26;100184.72;5031899;28;20107;-72
2022/07/10 07:29:16;;;;;;;1.40;1.10;;;;;;;26.65;39.84;100191.31;5031690;28;20095;-72
2022/07/10 07:31:42;;;;;;;1.95;0.93;;;;;;;26.65;39.11;100179.47;5031586;28;20120;-71
2022/07/10 07:34:08;;;;;;;1.08;0.80;;;;;;;26.81;37.26;100193.31;5040304;28;20029;-72
2022/07/10 07:36:34;;;;;;;1.67;0.93;;;;;;;26.66;37.33;100190.22;5049981;28;20086;-72
2022/07/10 07:38:59;;;;;;;0.93;0.88;;;;;;;26.56;37.59;100178.97;5051168;28;20027;-71
2022/07/10 07:41:25;;;;;;;0.77;0.70;;;;;;;26.51;36.92;100182.44;5051383;28;20108;-71
2022/07/10 07:43:50;;;;;;;3.55;0.90;;;;;;;26.57;37.43;100177.91;5051091;28;20492;-72
2022/07/10 07:46:16;;;;;;;2.33;0.90;;;;;;;26.68;38.01;100171.56;5046787;28;20025;-73
2022/07/10 07:48:42;;;;;;;1.10;0.77;;;;;;;26.88;37.59;100174.75;5031097;28;20048;-72
2022/07/10 07:51:07;;;;;;;2.20;0.77;;;;;;;26.80;39.10;100171.53;5031342;28;20041;-72
2022/07/10 07:53:33;;;;;;;2.15;0.90;;;;;;;26.84;39.80;100181.81;5049169;28;20033;-72
2022/07/10 07:55:58;;;;;;;4.90;0.93;;;;;;;26.63;39.92;100154.94;5051305;28;20094;-72
2022/07/10 07:58:24;;;;;;;2.25;0.95;;;;;;;26.58;39.88;100174.06;5049453;28;20048;-71
2022/07/10 08:00:50;;;;;;;1.75;0.88;;;;;;;26.36;39.52;100167.50;5047712;28;20074;-72
2022/07/10 08:03:15;;;;;;;2.47;1.17;;;;;;;26.21;40.14;100169.91;5048491;28;20033;-72
2022/07/10 08:05:41;;;;;;;1.00;0.90;;;;;;;26.23;39.18;100189.75;5050984;28;20029;-71
2022/07/10 08:08:09;;;;;;;1.70;1.10;;;;;;;25.99;39.67;100179.84;5051135;28;20033;-72
2022/07/10 08:10:36;;;;;;;1.13;0.60;;;;;;;25.94;39.62;100174.16;5046350;28;20122;-71
2022/07/10 08:13:03;;;;;;;2.00;1.25;;;;;;;25.90;40.98;100168.34;5031004;28;20029;-72
2022/07/10 08:15:30;;;;;;;2.55;1.20;;;;;;;25.92;41.01;100176.34;5044621;28;20060;-71
2022/07/10 08:17:57;;;;;;;1.35;1.20;;;;;;;25.95;40.92;100182.19;5050672;28;20040;-72
2022/07/10 08:20:23;;;;;;;1.15;1.05;;;;;;;25.94;40.98;100169.53;5033122;28;20044;-72
2022/07/10 08:22:49;;;;;;;1.90;0.93;;;;;;;26.01;40.88;100158.44;5042243;28;20036;-72
2022/07/10 08:25:14;;;;;;;1.65;1.20;;;;;;;26.15;40.73;100165.38;5050490;28;20037;-72
2022/07/10 08:27:40;;;;;;;7.70;1.35;;;;;;;26.19;41.23;100167.41;5049075;28;20510;-72
2022/07/10 08:30:08;;;;;;;4.05;1.20;;;;;;;26.23;41.16;100178.75;5043990;28;20372;-72
2022/07/10 08:32:35;;;;;;;3.72;1.20;;;;;;;26.16;40.62;100180.81;5030413;28;20698;-72
2022/07/10 08:35:01;;;;;;;0.88;0.88;;;;;;;26.04;40.89;100177.19;5030602;28;20087;-73
2022/07/10 08:37:27;;;;;;;1.65;1.02;;;;;;;25.96;40.71;100185.78;5029828;28;20480;-71
2022/07/10 08:39:52;;;;;;;1.55;0.90;;;;;;;25.89;40.55;100165.81;5050370;28;20029;-71
2022/07/10 08:42:18;;;;;;;0.90;0.80;;;;;;;25.94;40.38;100174.16;5037330;28;20115;-72
2022/07/10 08:44:44;;;;;;;3.15;1.08;;;;;;;25.99;39.68;100177.09;5030456;28;20036;-71
2022/07/10 08:47:11;;;;;;;2.58;0.90;;;;;;;25.95;39.09;100151.94;5030501;28;20033;-71
2022/07/10 08:49:37;;;;;;;1.65;0.95;;;;;;;26.13;39.13;100160.13;5046119;28;20033;-73
2022/07/10 08:52:12;;;;;;;1.58;0.80;;;;;;;26.27;38.09;100158.78;5049732;28;20454;-71
2022/07/10 08:54:38;;;;;;;1.00;0.80;;;;;;;26.44;37.10;100159.72;5049987;28;20036;-70
2022/07/10 08:57:05;;;;;;;1.23;0.80;;;;;;;26.61;36.48;100158.97;5050128;28;20127;-70
2022/07/10 08:59:31;;;;;;;1.08;0.75;;;;;;;26.77;36.13;100161.88;5049986;28;20037;-71
2022/07/10 09:01:57;;;;;;;1.02;0.95;;;;;;;26.93;34.77;100152.84;5049803;28;20035;-70
2022/07/10 09:04:25;;;;;;;0.88;0.60;;;;;;;27.01;32.87;100163.44;5050156;28;20471;-72
2022/07/10 09:06:52;;;;;;;3.25;1.05;;;;;;;27.07;35.15;100156.97;5050361;28;20117;-72
2022/07/10 09:09:18;;;;;;;2.47;1.27;;;;;;;27.24;35.36;100155.13;5050180;28;20107;-71
2022/07/10 09:11:44;;;;;;;2.90;1.23;;;;;;;27.14;35.31;100141.13;5044358;28;20048;-72
2022/07/10 09:14:11;;;;;;;1.33;1.20;;;;;;;26.85;35.91;100139.44;5037307;28;20029;-70
2022/07/10 09:16:42;;;;;;;1.40;1.30;;;;;;;26.87;35.96;100148.31;5049465;28;20025;-71
2022/07/10 09:19:22;;;;;;;1.08;1.05;;;;;;;26.58;35.91;100115.44;5049593;28;20032;-72
2022/07/10 09:21:53;;;;;;;1.88;1.30;;;;;;;26.72;35.59;100142.47;5049360;28;20497;-72
2022/07/10 09:24:19;;;;;;;1.60;1.20;;;;;;;26.82;34.55;100139.94;5029894;28;20033;-72
2022/07/10 09:26:56;;;;;;;2.90;1.60;;;;;;;26.86;35.06;100145.81;5031811;28;20476;-71
2022/07/10 09:29:22;;;;;;;2.90;1.38;;;;;;;26.98;35.23;100127.34;5036536;28;20048;-72
2022/07/10 09:32:09;;;;;;;1.50;1.30;;;;;;;26.93;35.11;100141.84;5048151;28;20044;-72
2022/07/10 09:34:47;;;;;;;2.80;1.25;;;;;;;26.75;35.52;100138.41;5048082;28;20033;-72
2022/07/10 09:37:19;;;;;;;1.83;1.60;;;;;;;26.56;36.29;100134.94;5028505;28;20107;-71
2022/07/10 09:40:10;;;;;;;2.00;1.50;;;;;;;26.45;36.14;100135.81;5028917;28;20040;-72
2022/07/10 09:42:48;;;;;;;2.30;1.60;;;;;;;26.44;36.12;100136.91;5026041;28;20064;-71
2022/07/10 09:45:24;;;;;;;4.10;1.50;;;;;;;26.41;35.92;100118.13;5037406;28;20120;-72
2022/07/10 09:47:57;;;;;;;3.38;1.50;;;;;;;26.53;35.79;100135.44;5047986;28;20589;-72
2022/07/10 09:50:24;;;;;;;4.80;1.30;;;;;;;26.52;36.06;100136.53;5042192;28;20111;-71
2022/07/10 09:52:54;;;;;;;5.38;1.92;;;;;;;26.59;35.96;100136.41;5029219;28;20033;-70
2022/07/10 09:55:21;;;;;;;2.95;1.65;;;;;;;26.65;35.50;100139.03;5040674;28;20399;-71
2022/07/10 09:57:54;;;;;;;1.20;1.10;;;;;;;26.72;34.15;100130.66;5029800;28;20637;-71
2022/07/10 10:00:40;;;;;;;1.48;1.33;;;;;;;26.78;34.50;100111.22;5047553;28;20530;-71
2022/07/10 10:03:11;;;;;;;1.20;1.10;;;;;;;26.66;35.42;100107.66;5049449;28;20120;-70
2022/07/10 10:06:00;;;;;;;2.22;1.30;;;;;;;26.81;35.69;100131.91;5053204;28;20110;-71
2022/07/10 10:08:37;;;;;;;5.88;1.42;;;;;;;26.93;33.94;100130.81;5048019;28;20037;-70
2022/07/10 10:11:06;;;;;;;2.30;1.23;;;;;;;26.89;34.59;100107.59;5033431;28;20047;-71
2022/07/10 10:13:34;;;;;;;1.38;1.15;;;;;;;27.00;34.46;100131.50;5031723;28;20044;-71
2022/07/10 10:16:01;;;;;;;2.78;1.25;;;;;;;27.08;35.36;100133.03;5033318;28;20476;-71
2022/07/10 10:18:29;;;;;;;2.00;1.30;;;;;;;26.98;35.70;100124.59;5032846;28;20468;-70
2022/07/10 10:20:56;;;;;;;1.75;1.00;;;;;;;26.92;35.97;100129.13;5032263;28;20026;-70
2022/07/10 10:23:25;;;;;;;1.90;1.30;;;;;;;26.83;36.10;100121.50;5035852;28;20029;-70
2022/07/10 10:25:56;;;;;;;2.95;1.15;;;;;;;26.94;36.15;100115.13;5041770;28;20048;-70
2022/07/10 10:28:24;;;;;;;2.45;1.40;;;;;;;26.94;35.95;100102.19;5027327;28;20096;-70
2022/07/10 10:30:54;;;;;;;1.05;0.95;;;;;;;27.04;35.79;100116.16;5029508;28;20041;-70
2022/07/10 10:33:32;;;;;;;1.40;1.05;;;;;;;27.30;36.21;100115.56;5031210;28;20075;-70
2022/07/10 10:36:04;;;;;;;1.35;1.23;;;;;;;27.21;36.49;100105.19;5029435;28;20041;-71
2022/07/10 10:38:45;;;;;;;4.32;1.50;;;;;;;27.29;36.13;100113.91;5029118;28;20038;-70
2022/07/10 10:41:27;;;;;;;10.95;1.73;;;;;;;27.15;35.61;100107.00;5044704;28;20400;-70
2022/07/10 10:44:16;;;;;;;3.90;1.50;;;;;;;27.28;35.10;100100.41;5029880;28;20567;-69
2022/07/10 10:46:54;;;;;;;10.57;1.70;;;;;;;27.17;35.88;100104.84;5035871;28;20099;-72
2022/07/10 10:49:21;;;;;;;1.00;0.90;;;;;;;27.19;35.98;100097.19;5031989;28;20060;-72
2022/07/10 10:52:03;;;;;;;1.85;0.95;;;;;;;27.24;34.24;100080.75;5031948;28;20049;-70
2022/07/10 10:54:31;;;;;;;3.30;1.25;;;;;;;27.32;34.43;100096.06;5031832;28;20109;-70
2022/07/10 10:57:13;;;;;;;3.63;0.82;;;;;;;27.14;35.41;100085.25;5031771;28;20045;-71
2022/07/10 10:59:46;;;;;;;3.88;0.82;;;;;;;27.07;35.88;100082.63;5029108;28;20032;-71
2022/07/10 11:02:25;;;;;;;2.80;0.98;;;;;;;26.93;38.11;100078.50;5022941;28;20477;-70
2022/07/10 11:04:51;;;;;;;5.10;1.00;;;;;;;26.79;37.93;100084.56;5012179;28;20026;-70
2022/07/10 11:07:55;;;;;;;2.53;0.90;;;;;;;26.68;38.01;100083.50;5029830;28;20056;-70
2022/07/10 11:10:43;;;;;;;2.58;1.05;;;;;;;26.70;36.59;100073.09;5012220;28;20038;-70
2022/07/10 11:13:12;;;;;;;4.15;1.00;;;;;;;26.66;36.38;100074.66;5012387;28;20057;-69
2022/07/10 11:15:43;;;;;;;5.57;1.20;;;;;;;26.65;36.33;100077.66;5030842;28;20033;-71
2022/07/10 11:18:16;;;;;;;2.40;0.90;;;;;;;26.75;35.28;100066.84;5031910;28;20386;-71
2022/07/10 11:20:44;;;;;;;4.45;0.88;;;;;;;26.68;35.77;100089.00;5031649;28;20104;-71
2022/07/10 11:23:47;;;;;;;4.18;1.00;;;;;;;26.63;35.57;100072.38;5031148;28;20365;-70
2022/07/10 11:26:49;;;;;;;2.40;0.82;;;;;;;26.68;35.60;100083.50;5031687;28;20033;-72
2022/07/10 11:29:18;;;;;;;8.32;1.25;;;;;;;26.77;34.61;100090.31;5028806;28;20052;-70
2022/07/10 11:31:52;;;;;;;2.17;1.10;;;;;;;26.81;33.76;100087.88;5031748;28;20055;-71
2022/07/10 11:34:17;;;;;;;;;;;;;;;26.67;34.10;100090.09;5031666;28;20037;-70